Portada
METAR-TAF:

METAR-TAF

Aeroports :

Pago Pago, Illes Perifèriques Menors dels EUA

latitud: 14-20S, longitud: 170-43W, altitud: 3 m

Observació

L'informe es va fer fa 38 minuts, a les 10:00 UTC
Vent 5 kt amb direcció variable
Temperatura 27°C
Humitat 79%
Pressió 1012 hPa
Visibilitat: 16.1 km
Escasses núvols a una alçada de 1900 ft
Cel ennuvolat a una alçada de 12000 ft

METAR: NSTU 231000Z VRB05KT 10SM FEW019 BKN120 27/23 A2987 RMK SLP117 T02650227

Hora: 23:38 (10:38 UTC)

Pronòstic

L'informe es va fer fa 5 hores i 14 minuts, a les 05:24 UTC
Pronòstic vàlid del 23 a les 06 UTC al 24 a les 06 UTC
Vent 9 kt del Est/Sud-Est
Visibilitat: 10 km
Núvols disperses a una alçada de 2000 ft
Cel ennuvolat a una alçada de 4000 ft
Cel ennuvolat a una alçada de 10000 ft
xàfecs en les proximitats

TAF: NSTU 230524Z 2306/2406 12009KT P6SM VCSH SCT020 BKN040 BKN100

Observacions i pronòstics meteorològics de més de 4000 aeroports (METAR i TAF).

Les estacions disponibles són els punts grocs i vermells al mapa.

Posi el ratolí al punt desitjat per veure el nom de l'estació.

Feu clic per veure les observacions i els pronòstics meteorològics.

Per canviar el mapa: feu clic els botons verds amb una creu de color negre per apropar; al botó verd amb un guió per allunyar la imatge; o en les fletxes verdes per a mapes adjacents.


METAR-TAF: